sensor_id;sensor_type;location;lat;lon;timestamp;P1;durP1;ratioP1;P2;durP2;ratioP2
44440;SDS011;30146;52.268;20.944;2023-09-19T00:02:07;17.60;;;11.60;;
44440;SDS011;30146;52.268;20.944;2023-09-19T00:04:39;15.50;;;11.40;;
44440;SDS011;30146;52.268;20.944;2023-09-19T00:07:11;15.10;;;10.70;;
44440;SDS011;30146;52.268;20.944;2023-09-19T00:09:44;17.80;;;11.60;;
44440;SDS011;30146;52.268;20.944;2023-09-19T00:12:15;15.60;;;11.30;;
44440;SDS011;30146;52.268;20.944;2023-09-19T00:14:46;18.30;;;11.50;;
44440;SDS011;30146;52.268;20.944;2023-09-19T00:17:18;15.30;;;9.80;;
44440;SDS011;30146;52.268;20.944;2023-09-19T00:19:50;16.10;;;11.80;;
44440;SDS011;30146;52.268;20.944;2023-09-19T00:22:21;16.10;;;11.40;;
44440;SDS011;30146;52.268;20.944;2023-09-19T00:24:55;15.50;;;11.40;;
44440;SDS011;30146;52.268;20.944;2023-09-19T00:27:25;15.60;;;11.70;;
44440;SDS011;30146;52.268;20.944;2023-09-19T00:29:57;31.40;;;12.20;;
44440;SDS011;30146;52.268;20.944;2023-09-19T00:32:29;19.00;;;11.40;;
44440;SDS011;30146;52.268;20.944;2023-09-19T00:35:02;16.80;;;10.90;;
44440;SDS011;30146;52.268;20.944;2023-09-19T00:37:34;17.40;;;11.20;;
44440;SDS011;30146;52.268;20.944;2023-09-19T00:40:06;14.30;;;11.00;;
44440;SDS011;30146;52.268;20.944;2023-09-19T00:42:40;16.60;;;11.90;;
44440;SDS011;30146;52.268;20.944;2023-09-19T00:45:12;19.50;;;11.90;;
44440;SDS011;30146;52.268;20.944;2023-09-19T00:47:45;17.70;;;12.50;;
44440;SDS011;30146;52.268;20.944;2023-09-19T00:50:20;16.10;;;11.80;;
44440;SDS011;30146;52.268;20.944;2023-09-19T00:55:25;13.60;;;10.70;;
44440;SDS011;30146;52.268;20.944;2023-09-19T00:57:58;17.40;;;10.50;;
44440;SDS011;30146;52.268;20.944;2023-09-19T01:00:29;15.00;;;11.00;;
44440;SDS011;30146;52.268;20.944;2023-09-19T01:03:02;14.80;;;11.90;;
44440;SDS011;30146;52.268;20.944;2023-09-19T01:05:34;17.20;;;11.50;;
44440;SDS011;30146;52.268;20.944;2023-09-19T01:08:06;15.30;;;11.60;;
44440;SDS011;30146;52.268;20.944;2023-09-19T01:10:39;16.30;;;12.40;;
44440;SDS011;30146;52.268;20.944;2023-09-19T01:13:21;16.20;;;12.20;;
44440;SDS011;30146;52.268;20.944;2023-09-19T01:16:15;17.50;;;11.70;;
44440;SDS011;30146;52.268;20.944;2023-09-19T01:18:59;15.90;;;12.60;;
44440;SDS011;30146;52.268;20.944;2023-09-19T01:25:05;17.20;;;11.90;;
44440;SDS011;30146;52.268;20.944;2023-09-19T01:28:16;15.40;;;11.20;;
44440;SDS011;30146;52.268;20.944;2023-09-19T01:30:59;17.80;;;12.00;;
44440;SDS011;30146;52.268;20.944;2023-09-19T01:36:30;16.10;;;12.00;;
44440;SDS011;30146;52.268;20.944;2023-09-19T01:39:04;16.70;;;12.00;;
44440;SDS011;30146;52.268;20.944;2023-09-19T01:41:58;15.10;;;11.80;;
44440;SDS011;30146;52.268;20.944;2023-09-19T01:44:49;16.30;;;11.80;;
44440;SDS011;30146;52.268;20.944;2023-09-19T01:47:30;20.80;;;12.20;;
44440;SDS011;30146;52.268;20.944;2023-09-19T01:50:11;16.80;;;11.80;;
44440;SDS011;30146;52.268;20.944;2023-09-19T01:52:48;13.60;;;10.60;;
44440;SDS011;30146;52.268;20.944;2023-09-19T01:55:24;13.60;;;11.50;;
44440;SDS011;30146;52.268;20.944;2023-09-19T01:58:01;18.40;;;12.10;;
44440;SDS011;30146;52.268;20.944;2023-09-19T02:00:36;13.60;;;11.70;;
44440;SDS011;30146;52.268;20.944;2023-09-19T02:03:09;18.10;;;12.50;;
44440;SDS011;30146;52.268;20.944;2023-09-19T02:05:43;16.60;;;12.00;;
44440;SDS011;30146;52.268;20.944;2023-09-19T02:08:22;17.80;;;12.40;;
44440;SDS011;30146;52.268;20.944;2023-09-19T02:10:53;17.00;;;11.40;;
44440;SDS011;30146;52.268;20.944;2023-09-19T02:13:24;19.20;;;11.90;;
44440;SDS011;30146;52.268;20.944;2023-09-19T02:15:56;21.50;;;13.00;;
44440;SDS011;30146;52.268;20.944;2023-09-19T02:18:28;16.80;;;12.40;;
44440;SDS011;30146;52.268;20.944;2023-09-19T02:20:59;16.60;;;12.10;;
44440;SDS011;30146;52.268;20.944;2023-09-19T02:23:31;17.30;;;12.30;;
44440;SDS011;30146;52.268;20.944;2023-09-19T02:26:07;17.30;;;11.20;;
44440;SDS011;30146;52.268;20.944;2023-09-19T02:28:40;22.10;;;11.50;;
44440;SDS011;30146;52.268;20.944;2023-09-19T02:31:11;15.80;;;12.40;;
44440;SDS011;30146;52.268;20.944;2023-09-19T02:33:42;17.90;;;12.90;;
44440;SDS011;30146;52.268;20.944;2023-09-19T02:36:17;15.70;;;12.20;;
44440;SDS011;30146;52.268;20.944;2023-09-19T02:38:48;20.70;;;12.30;;
44440;SDS011;30146;52.268;20.944;2023-09-19T02:41:19;14.70;;;11.70;;
44440;SDS011;30146;52.268;20.944;2023-09-19T02:43:50;17.80;;;12.40;;
44440;SDS011;30146;52.268;20.944;2023-09-19T02:46:21;16.00;;;10.80;;
44440;SDS011;30146;52.268;20.944;2023-09-19T02:48:52;14.40;;;12.30;;
44440;SDS011;30146;52.268;20.944;2023-09-19T02:51:26;16.40;;;12.00;;
44440;SDS011;30146;52.268;20.944;2023-09-19T02:53:58;15.50;;;12.10;;
44440;SDS011;30146;52.268;20.944;2023-09-19T02:56:30;20.30;;;12.30;;
44440;SDS011;30146;52.268;20.944;2023-09-19T02:59:03;16.40;;;12.70;;
44440;SDS011;30146;52.268;20.944;2023-09-19T03:01:35;15.40;;;11.60;;
44440;SDS011;30146;52.268;20.944;2023-09-19T03:04:07;15.90;;;12.70;;
44440;SDS011;30146;52.268;20.944;2023-09-19T03:06:39;12.30;;;11.00;;
44440;SDS011;30146;52.268;20.944;2023-09-19T03:09:10;16.80;;;12.40;;
44440;SDS011;30146;52.268;20.944;2023-09-19T03:11:42;15.40;;;12.00;;
44440;SDS011;30146;52.268;20.944;2023-09-19T03:14:15;21.50;;;12.50;;
44440;SDS011;30146;52.268;20.944;2023-09-19T03:16:48;16.80;;;12.10;;
44440;SDS011;30146;52.268;20.944;2023-09-19T03:19:20;18.80;;;13.10;;
44440;SDS011;30146;52.268;20.944;2023-09-19T03:21:52;18.50;;;12.30;;
44440;SDS011;30146;52.268;20.944;2023-09-19T03:24:25;25.50;;;16.20;;
44440;SDS011;30146;52.268;20.944;2023-09-19T03:26:58;15.60;;;12.50;;
44440;SDS011;30146;52.268;20.944;2023-09-19T03:29:29;15.80;;;13.10;;
44440;SDS011;30146;52.268;20.944;2023-09-19T03:32:03;22.80;;;12.60;;
44440;SDS011;30146;52.268;20.944;2023-09-19T03:34:34;26.70;;;13.20;;
44440;SDS011;30146;52.268;20.944;2023-09-19T03:37:09;15.00;;;12.60;;
44440;SDS011;30146;52.268;20.944;2023-09-19T03:39:40;22.20;;;13.40;;
44440;SDS011;30146;52.268;20.944;2023-09-19T03:42:12;18.40;;;13.50;;
44440;SDS011;30146;52.268;20.944;2023-09-19T03:44:43;19.80;;;12.30;;
44440;SDS011;30146;52.268;20.944;2023-09-19T03:47:14;17.80;;;12.30;;
44440;SDS011;30146;52.268;20.944;2023-09-19T03:49:47;17.60;;;12.10;;
44440;SDS011;30146;52.268;20.944;2023-09-19T03:52:18;16.30;;;12.10;;
44440;SDS011;30146;52.268;20.944;2023-09-19T03:54:49;16.60;;;11.80;;
44440;SDS011;30146;52.268;20.944;2023-09-19T03:57:20;19.40;;;12.40;;
44440;SDS011;30146;52.268;20.944;2023-09-19T03:59:51;20.30;;;11.50;;
44440;SDS011;30146;52.268;20.944;2023-09-19T04:02:24;13.40;;;11.80;;
44440;SDS011;30146;52.268;20.944;2023-09-19T04:05:01;25.00;;;12.60;;
44440;SDS011;30146;52.268;20.944;2023-09-19T04:07:32;19.80;;;12.40;;
44440;SDS011;30146;52.268;20.944;2023-09-19T04:10:13;19.40;;;15.50;;
44440;SDS011;30146;52.268;20.944;2023-09-19T04:13:54;18.70;;;12.00;;
44440;SDS011;30146;52.268;20.944;2023-09-19T04:17:37;16.80;;;11.80;;
44440;SDS011;30146;52.268;20.944;2023-09-19T04:20:09;22.90;;;12.70;;
44440;SDS011;30146;52.268;20.944;2023-09-19T04:22:44;17.00;;;12.30;;
44440;SDS011;30146;52.268;20.944;2023-09-19T04:25:15;16.30;;;11.70;;
44440;SDS011;30146;52.268;20.944;2023-09-19T04:27:47;16.00;;;11.10;;
44440;SDS011;30146;52.268;20.944;2023-09-19T04:30:18;16.10;;;12.10;;
44440;SDS011;30146;52.268;20.944;2023-09-19T04:32:49;15.50;;;11.40;;
44440;SDS011;30146;52.268;20.944;2023-09-19T04:35:21;24.00;;;12.70;;
44440;SDS011;30146;52.268;20.944;2023-09-19T04:37:53;17.40;;;12.60;;
44440;SDS011;30146;52.268;20.944;2023-09-19T04:40:25;18.00;;;12.40;;
44440;SDS011;30146;52.268;20.944;2023-09-19T04:42:57;17.70;;;11.60;;
44440;SDS011;30146;52.268;20.944;2023-09-19T04:45:28;19.90;;;12.10;;
44440;SDS011;30146;52.268;20.944;2023-09-19T04:47:59;19.30;;;13.50;;
44440;SDS011;30146;52.268;20.944;2023-09-19T04:50:33;20.30;;;13.70;;
44440;SDS011;30146;52.268;20.944;2023-09-19T04:53:05;22.70;;;12.40;;
44440;SDS011;30146;52.268;20.944;2023-09-19T04:55:36;26.60;;;12.80;;
44440;SDS011;30146;52.268;20.944;2023-09-19T04:58:07;27.30;;;14.20;;
44440;SDS011;30146;52.268;20.944;2023-09-19T05:00:38;20.30;;;11.70;;
44440;SDS011;30146;52.268;20.944;2023-09-19T05:03:08;15.00;;;12.00;;
44440;SDS011;30146;52.268;20.944;2023-09-19T05:05:39;23.10;;;12.60;;
44440;SDS011;30146;52.268;20.944;2023-09-19T05:08:11;22.40;;;13.40;;
44440;SDS011;30146;52.268;20.944;2023-09-19T05:10:42;19.60;;;12.60;;
44440;SDS011;30146;52.268;20.944;2023-09-19T05:13:13;21.40;;;11.70;;
44440;SDS011;30146;52.268;20.944;2023-09-19T05:15:45;21.60;;;12.80;;
44440;SDS011;30146;52.268;20.944;2023-09-19T05:18:16;20.70;;;13.70;;
44440;SDS011;30146;52.268;20.944;2023-09-19T05:20:46;31.70;;;13.20;;
44440;SDS011;30146;52.268;20.944;2023-09-19T05:23:18;20.50;;;13.20;;
44440;SDS011;30146;52.268;20.944;2023-09-19T05:25:50;18.00;;;14.00;;
44440;SDS011;30146;52.268;20.944;2023-09-19T05:28:22;20.40;;;16.30;;
44440;SDS011;30146;52.268;20.944;2023-09-19T05:30:55;22.10;;;12.30;;
44440;SDS011;30146;52.268;20.944;2023-09-19T05:33:30;18.40;;;11.80;;
44440;SDS011;30146;52.268;20.944;2023-09-19T05:36:01;13.80;;;11.50;;
44440;SDS011;30146;52.268;20.944;2023-09-19T05:38:33;16.90;;;12.60;;
44440;SDS011;30146;52.268;20.944;2023-09-19T05:41:04;15.60;;;11.20;;
44440;SDS011;30146;52.268;20.944;2023-09-19T05:43:36;16.40;;;10.90;;
44440;SDS011;30146;52.268;20.944;2023-09-19T05:46:09;19.10;;;11.30;;
44440;SDS011;30146;52.268;20.944;2023-09-19T05:48:41;14.50;;;10.90;;
44440;SDS011;30146;52.268;20.944;2023-09-19T05:51:12;16.60;;;10.80;;
44440;SDS011;30146;52.268;20.944;2023-09-19T05:53:45;19.60;;;10.80;;
44440;SDS011;30146;52.268;20.944;2023-09-19T05:56:16;17.20;;;12.10;;
44440;SDS011;30146;52.268;20.944;2023-09-19T05:58:48;20.10;;;12.70;;
44440;SDS011;30146;52.268;20.944;2023-09-19T06:01:21;19.20;;;11.10;;
44440;SDS011;30146;52.268;20.944;2023-09-19T06:03:52;19.90;;;11.50;;
44440;SDS011;30146;52.268;20.944;2023-09-19T06:06:24;13.60;;;11.40;;
44440;SDS011;30146;52.268;20.944;2023-09-19T06:08:55;17.70;;;11.40;;
44440;SDS011;30146;52.268;20.944;2023-09-19T06:11:27;17.10;;;11.50;;
44440;SDS011;30146;52.268;20.944;2023-09-19T06:14:04;17.80;;;12.40;;
44440;SDS011;30146;52.268;20.944;2023-09-19T06:16:38;18.90;;;10.90;;
44440;SDS011;30146;52.268;20.944;2023-09-19T06:19:12;19.70;;;12.10;;
44440;SDS011;30146;52.268;20.944;2023-09-19T06:21:43;20.80;;;11.60;;
44440;SDS011;30146;52.268;20.944;2023-09-19T06:24:15;16.60;;;12.10;;
44440;SDS011;30146;52.268;20.944;2023-09-19T06:26:49;19.00;;;11.50;;
44440;SDS011;30146;52.268;20.944;2023-09-19T06:29:20;16.00;;;11.30;;
44440;SDS011;30146;52.268;20.944;2023-09-19T06:31:52;19.40;;;12.10;;
44440;SDS011;30146;52.268;20.944;2023-09-19T06:34:24;16.50;;;11.50;;
44440;SDS011;30146;52.268;20.944;2023-09-19T06:36:59;19.40;;;11.30;;
44440;SDS011;30146;52.268;20.944;2023-09-19T06:39:32;21.30;;;11.60;;
44440;SDS011;30146;52.268;20.944;2023-09-19T06:42:03;33.80;;;13.40;;
44440;SDS011;30146;52.268;20.944;2023-09-19T06:44:38;21.30;;;12.30;;
44440;SDS011;30146;52.268;20.944;2023-09-19T06:47:09;25.80;;;11.20;;
44440;SDS011;30146;52.268;20.944;2023-09-19T06:49:40;18.00;;;11.10;;
44440;SDS011;30146;52.268;20.944;2023-09-19T06:52:13;27.00;;;10.50;;
44440;SDS011;30146;52.268;20.944;2023-09-19T06:54:44;19.90;;;11.00;;
44440;SDS011;30146;52.268;20.944;2023-09-19T06:57:15;18.50;;;10.50;;
44440;SDS011;30146;52.268;20.944;2023-09-19T06:59:48;15.30;;;11.40;;
44440;SDS011;30146;52.268;20.944;2023-09-19T07:02:19;14.50;;;10.30;;
44440;SDS011;30146;52.268;20.944;2023-09-19T07:04:52;14.10;;;10.60;;
44440;SDS011;30146;52.268;20.944;2023-09-19T07:07:25;15.60;;;9.70;;
44440;SDS011;30146;52.268;20.944;2023-09-19T07:15:32;17.10;;;11.00;;
44440;SDS011;30146;52.268;20.944;2023-09-19T07:18:17;20.10;;;10.10;;
44440;SDS011;30146;52.268;20.944;2023-09-19T07:20:48;20.00;;;10.10;;
44440;SDS011;30146;52.268;20.944;2023-09-19T07:23:20;16.60;;;10.90;;
44440;SDS011;30146;52.268;20.944;2023-09-19T07:25:57;13.60;;;10.60;;
44440;SDS011;30146;52.268;20.944;2023-09-19T07:28:32;18.30;;;10.00;;
44440;SDS011;30146;52.268;20.944;2023-09-19T07:31:04;18.50;;;10.40;;
44440;SDS011;30146;52.268;20.944;2023-09-19T07:33:38;16.30;;;11.50;;
44440;SDS011;30146;52.268;20.944;2023-09-19T07:36:13;18.90;;;11.90;;
44440;SDS011;30146;52.268;20.944;2023-09-19T07:38:45;16.10;;;10.00;;
44440;SDS011;30146;52.268;20.944;2023-09-19T07:41:16;15.10;;;10.80;;
44440;SDS011;30146;52.268;20.944;2023-09-19T07:43:48;11.90;;;9.90;;
44440;SDS011;30146;52.268;20.944;2023-09-19T07:46:19;15.30;;;11.70;;
44440;SDS011;30146;52.268;20.944;2023-09-19T07:48:53;18.00;;;11.50;;
44440;SDS011;30146;52.268;20.944;2023-09-19T07:51:24;16.50;;;12.00;;
44440;SDS011;30146;52.268;20.944;2023-09-19T07:54:01;14.60;;;11.70;;
44440;SDS011;30146;52.268;20.944;2023-09-19T07:56:34;18.50;;;11.60;;
44440;SDS011;30146;52.268;20.944;2023-09-19T07:59:05;16.20;;;11.00;;
44440;SDS011;30146;52.268;20.944;2023-09-19T08:01:38;17.40;;;12.10;;
44440;SDS011;30146;52.268;20.944;2023-09-19T08:04:12;17.60;;;12.40;;
44440;SDS011;30146;52.268;20.944;2023-09-19T08:06:44;17.50;;;11.50;;
44440;SDS011;30146;52.268;20.944;2023-09-19T08:09:15;16.60;;;12.10;;
44440;SDS011;30146;52.268;20.944;2023-09-19T08:11:53;16.60;;;11.70;;
44440;SDS011;30146;52.268;20.944;2023-09-19T08:14:25;24.10;;;12.80;;
44440;SDS011;30146;52.268;20.944;2023-09-19T08:16:58;15.70;;;11.50;;
44440;SDS011;30146;52.268;20.944;2023-09-19T08:19:30;16.30;;;12.90;;
44440;SDS011;30146;52.268;20.944;2023-09-19T08:22:01;17.50;;;11.50;;
44440;SDS011;30146;52.268;20.944;2023-09-19T08:24:35;14.80;;;11.50;;
44440;SDS011;30146;52.268;20.944;2023-09-19T08:27:11;16.30;;;11.80;;
44440;SDS011;30146;52.268;20.944;2023-09-19T08:29:43;20.80;;;11.90;;
44440;SDS011;30146;52.268;20.944;2023-09-19T08:32:14;16.90;;;10.90;;
44440;SDS011;30146;52.268;20.944;2023-09-19T08:34:48;18.80;;;11.30;;
44440;SDS011;30146;52.268;20.944;2023-09-19T08:37:21;17.80;;;11.20;;
44440;SDS011;30146;52.268;20.944;2023-09-19T08:39:52;14.10;;;10.20;;
44440;SDS011;30146;52.268;20.944;2023-09-19T08:42:26;14.00;;;10.90;;
44440;SDS011;30146;52.268;20.944;2023-09-19T08:44:59;21.40;;;13.50;;
44440;SDS011;30146;52.268;20.944;2023-09-19T08:47:34;14.30;;;11.20;;
44440;SDS011;30146;52.268;20.944;2023-09-19T08:50:19;13.70;;;10.00;;
44440;SDS011;30146;52.268;20.944;2023-09-19T08:52:57;13.70;;;10.00;;
44440;SDS011;30146;52.268;20.944;2023-09-19T08:55:40;16.20;;;10.30;;
44440;SDS011;30146;52.268;20.944;2023-09-19T08:58:17;18.90;;;11.00;;
44440;SDS011;30146;52.268;20.944;2023-09-19T09:00:54;14.90;;;10.30;;
44440;SDS011;30146;52.268;20.944;2023-09-19T09:03:33;19.70;;;10.40;;
44440;SDS011;30146;52.268;20.944;2023-09-19T09:06:08;11.20;;;9.40;;
44440;SDS011;30146;52.268;20.944;2023-09-19T09:08:47;12.80;;;10.00;;
44440;SDS011;30146;52.268;20.944;2023-09-19T09:11:20;12.80;;;9.90;;
44440;SDS011;30146;52.268;20.944;2023-09-19T09:13:53;13.80;;;11.00;;
44440;SDS011;30146;52.268;20.944;2023-09-19T09:16:25;15.40;;;12.30;;
44440;SDS011;30146;52.268;20.944;2023-09-19T09:19:04;13.50;;;9.80;;
44440;SDS011;30146;52.268;20.944;2023-09-19T09:21:35;17.60;;;9.10;;
44440;SDS011;30146;52.268;20.944;2023-09-19T09:27:02;11.80;;;9.20;;
44440;SDS011;30146;52.268;20.944;2023-09-19T09:29:45;24.20;;;14.80;;
44440;SDS011;30146;52.268;20.944;2023-09-19T09:32:19;13.10;;;10.70;;
44440;SDS011;30146;52.268;20.944;2023-09-19T09:34:54;15.20;;;9.40;;
44440;SDS011;30146;52.268;20.944;2023-09-19T09:37:29;11.90;;;9.20;;
44440;SDS011;30146;52.268;20.944;2023-09-19T09:40:01;14.30;;;10.20;;
44440;SDS011;30146;52.268;20.944;2023-09-19T09:43:02;21.90;;;10.40;;
44440;SDS011;30146;52.268;20.944;2023-09-19T09:46:06;17.60;;;9.90;;
44440;SDS011;30146;52.268;20.944;2023-09-19T09:49:02;17.50;;;10.30;;
44440;SDS011;30146;52.268;20.944;2023-09-19T09:52:00;15.10;;;9.60;;
44440;SDS011;30146;52.268;20.944;2023-09-19T09:57:27;16.10;;;9.80;;
44440;SDS011;30146;52.268;20.944;2023-09-19T09:59:59;14.40;;;9.30;;
44440;SDS011;30146;52.268;20.944;2023-09-19T10:02:44;14.60;;;10.80;;
44440;SDS011;30146;52.268;20.944;2023-09-19T10:05:16;16.30;;;10.00;;
44440;SDS011;30146;52.268;20.944;2023-09-19T10:07:56;13.60;;;10.40;;
44440;SDS011;30146;52.268;20.944;2023-09-19T10:10:41;13.60;;;9.40;;
44440;SDS011;30146;52.268;20.944;2023-09-19T10:13:23;14.80;;;9.60;;
44440;SDS011;30146;52.268;20.944;2023-09-19T10:15:59;11.60;;;9.30;;
44440;SDS011;30146;52.268;20.944;2023-09-19T10:18:39;10.30;;;8.30;;
44440;SDS011;30146;52.268;20.944;2023-09-19T10:21:14;10.20;;;8.00;;
44440;SDS011;30146;52.268;20.944;2023-09-19T10:23:53;12.70;;;8.30;;
44440;SDS011;30146;52.268;20.944;2023-09-19T10:26:28;11.80;;;7.90;;
44440;SDS011;30146;52.268;20.944;2023-09-19T10:29:00;16.60;;;8.90;;
44440;SDS011;30146;52.268;20.944;2023-09-19T10:31:35;11.50;;;7.90;;
44440;SDS011;30146;52.268;20.944;2023-09-19T10:34:11;10.20;;;6.90;;
44440;SDS011;30146;52.268;20.944;2023-09-19T10:36:45;7.20;;;5.90;;
44440;SDS011;30146;52.268;20.944;2023-09-19T10:39:16;11.70;;;6.60;;
44440;SDS011;30146;52.268;20.944;2023-09-19T10:41:50;10.90;;;6.80;;
44440;SDS011;30146;52.268;20.944;2023-09-19T10:44:27;6.50;;;5.20;;
44440;SDS011;30146;52.268;20.944;2023-09-19T10:47:01;5.40;;;4.90;;
44440;SDS011;30146;52.268;20.944;2023-09-19T10:49:37;8.30;;;5.40;;
44440;SDS011;30146;52.268;20.944;2023-09-19T10:52:17;6.50;;;5.30;;
44440;SDS011;30146;52.268;20.944;2023-09-19T10:54:53;7.30;;;5.40;;
44440;SDS011;30146;52.268;20.944;2023-09-19T10:57:30;10.40;;;6.00;;
44440;SDS011;30146;52.268;20.944;2023-09-19T11:00:03;9.60;;;7.40;;
44440;SDS011;30146;52.268;20.944;2023-09-19T11:06:09;7.00;;;5.60;;
44440;SDS011;30146;52.268;20.944;2023-09-19T11:11:50;6.70;;;5.30;;
44440;SDS011;30146;52.268;20.944;2023-09-19T11:14:32;7.90;;;4.70;;
44440;SDS011;30146;52.268;20.944;2023-09-19T11:17:32;6.20;;;5.00;;
44440;SDS011;30146;52.268;20.944;2023-09-19T11:20:21;9.90;;;5.00;;
44440;SDS011;30146;52.268;20.944;2023-09-19T11:23:22;6.80;;;5.00;;
44440;SDS011;30146;52.268;20.944;2023-09-19T11:25:55;10.00;;;4.80;;
44440;SDS011;30146;52.268;20.944;2023-09-19T11:28:29;9.90;;;4.60;;
44440;SDS011;30146;52.268;20.944;2023-09-19T11:40:31;5.50;;;4.90;;
44440;SDS011;30146;52.268;20.944;2023-09-19T11:46:07;8.90;;;6.10;;
44440;SDS011;30146;52.268;20.944;2023-09-19T11:49:36;6.80;;;4.90;;
44440;SDS011;30146;52.268;20.944;2023-09-19T11:52:11;6.50;;;5.20;;
44440;SDS011;30146;52.268;20.944;2023-09-19T11:55:26;8.30;;;5.40;;
44440;SDS011;30146;52.268;20.944;2023-09-19T11:58:05;9.70;;;6.30;;
44440;SDS011;30146;52.268;20.944;2023-09-19T12:00:37;7.90;;;6.30;;
44440;SDS011;30146;52.268;20.944;2023-09-19T12:03:14;10.10;;;5.90;;
44440;SDS011;30146;52.268;20.944;2023-09-19T12:05:50;9.10;;;6.70;;
44440;SDS011;30146;52.268;20.944;2023-09-19T12:11:03;8.60;;;6.10;;
44440;SDS011;30146;52.268;20.944;2023-09-19T12:13:42;10.90;;;7.50;;
44440;SDS011;30146;52.268;20.944;2023-09-19T12:16:21;9.50;;;6.90;;
44440;SDS011;30146;52.268;20.944;2023-09-19T12:22:15;13.10;;;5.90;;
44440;SDS011;30146;52.268;20.944;2023-09-19T12:24:47;10.90;;;5.60;;
44440;SDS011;30146;52.268;20.944;2023-09-19T12:27:23;9.40;;;7.10;;
44440;SDS011;30146;52.268;20.944;2023-09-19T12:34:35;14.00;;;8.00;;
44440;SDS011;30146;52.268;20.944;2023-09-19T12:37:11;10.10;;;7.10;;
44440;SDS011;30146;52.268;20.944;2023-09-19T12:39:52;8.80;;;6.90;;
44440;SDS011;30146;52.268;20.944;2023-09-19T12:42:46;12.30;;;7.20;;
44440;SDS011;30146;52.268;20.944;2023-09-19T12:48:26;8.30;;;6.90;;
44440;SDS011;30146;52.268;20.944;2023-09-19T12:51:03;8.00;;;6.60;;
44440;SDS011;30146;52.268;20.944;2023-09-19T12:53:38;14.70;;;7.80;;
44440;SDS011;30146;52.268;20.944;2023-09-19T12:56:13;9.30;;;6.70;;
44440;SDS011;30146;52.268;20.944;2023-09-19T12:58:51;16.40;;;7.70;;
44440;SDS011;30146;52.268;20.944;2023-09-19T13:01:25;9.50;;;7.20;;
44440;SDS011;30146;52.268;20.944;2023-09-19T13:04:14;9.80;;;6.90;;
44440;SDS011;30146;52.268;20.944;2023-09-19T13:06:54;9.90;;;7.00;;
44440;SDS011;30146;52.268;20.944;2023-09-19T13:09:29;8.60;;;6.50;;
44440;SDS011;30146;52.268;20.944;2023-09-19T13:12:04;10.40;;;6.90;;
44440;SDS011;30146;52.268;20.944;2023-09-19T13:15:08;9.70;;;7.20;;
44440;SDS011;30146;52.268;20.944;2023-09-19T13:17:44;13.20;;;7.20;;
44440;SDS011;30146;52.268;20.944;2023-09-19T13:20:24;11.40;;;7.30;;
44440;SDS011;30146;52.268;20.944;2023-09-19T13:23:02;10.40;;;7.20;;
44440;SDS011;30146;52.268;20.944;2023-09-19T13:25:38;10.60;;;8.20;;
44440;SDS011;30146;52.268;20.944;2023-09-19T13:28:09;13.40;;;8.50;;
44440;SDS011;30146;52.268;20.944;2023-09-19T13:30:40;14.50;;;7.90;;
44440;SDS011;30146;52.268;20.944;2023-09-19T13:33:13;10.60;;;8.60;;
44440;SDS011;30146;52.268;20.944;2023-09-19T13:35:52;14.50;;;8.50;;
44440;SDS011;30146;52.268;20.944;2023-09-19T13:38:25;14.20;;;9.20;;
44440;SDS011;30146;52.268;20.944;2023-09-19T13:40:58;13.70;;;11.10;;
44440;SDS011;30146;52.268;20.944;2023-09-19T13:43:33;17.60;;;9.90;;
44440;SDS011;30146;52.268;20.944;2023-09-19T13:49:02;17.10;;;11.00;;
44440;SDS011;30146;52.268;20.944;2023-09-19T13:51:33;14.60;;;9.60;;
44440;SDS011;30146;52.268;20.944;2023-09-19T13:54:05;11.10;;;9.00;;
44440;SDS011;30146;52.268;20.944;2023-09-19T13:56:36;15.60;;;8.10;;
44440;SDS011;30146;52.268;20.944;2023-09-19T13:59:07;10.70;;;8.00;;
44440;SDS011;30146;52.268;20.944;2023-09-19T14:01:42;15.20;;;9.10;;
44440;SDS011;30146;52.268;20.944;2023-09-19T14:04:15;10.70;;;8.10;;
44440;SDS011;30146;52.268;20.944;2023-09-19T14:06:47;10.00;;;7.60;;
44440;SDS011;30146;52.268;20.944;2023-09-19T14:09:18;12.70;;;7.60;;
44440;SDS011;30146;52.268;20.944;2023-09-19T14:11:51;13.50;;;8.50;;
44440;SDS011;30146;52.268;20.944;2023-09-19T14:17:52;12.60;;;8.00;;
44440;SDS011;30146;52.268;20.944;2023-09-19T14:20:24;11.90;;;7.10;;
44440;SDS011;30146;52.268;20.944;2023-09-19T14:23:03;8.90;;;7.10;;
44440;SDS011;30146;52.268;20.944;2023-09-19T14:25:35;10.20;;;6.90;;
44440;SDS011;30146;52.268;20.944;2023-09-19T14:28:07;8.50;;;6.00;;
44440;SDS011;30146;52.268;20.944;2023-09-19T14:33:36;11.10;;;5.70;;
44440;SDS011;30146;52.268;20.944;2023-09-19T14:36:09;7.90;;;5.40;;
44440;SDS011;30146;52.268;20.944;2023-09-19T14:38:47;8.70;;;5.80;;
44440;SDS011;30146;52.268;20.944;2023-09-19T14:41:27;7.00;;;5.20;;
44440;SDS011;30146;52.268;20.944;2023-09-19T14:44:10;7.70;;;5.50;;
44440;SDS011;30146;52.268;20.944;2023-09-19T14:46:41;13.80;;;9.60;;
44440;SDS011;30146;52.268;20.944;2023-09-19T14:52:17;8.50;;;5.50;;
44440;SDS011;30146;52.268;20.944;2023-09-19T14:54:51;8.90;;;5.70;;
44440;SDS011;30146;52.268;20.944;2023-09-19T14:57:23;7.50;;;5.60;;
44440;SDS011;30146;52.268;20.944;2023-09-19T14:59:54;11.80;;;4.60;;
44440;SDS011;30146;52.268;20.944;2023-09-19T15:02:26;6.40;;;4.90;;
44440;SDS011;30146;52.268;20.944;2023-09-19T15:07:53;19.80;;;5.70;;
44440;SDS011;30146;52.268;20.944;2023-09-19T15:10:25;6.20;;;5.20;;
44440;SDS011;30146;52.268;20.944;2023-09-19T15:12:56;6.40;;;4.90;;
44440;SDS011;30146;52.268;20.944;2023-09-19T15:15:27;8.50;;;4.60;;
44440;SDS011;30146;52.268;20.944;2023-09-19T15:22:37;7.50;;;4.80;;
44440;SDS011;30146;52.268;20.944;2023-09-19T15:25:12;7.40;;;4.30;;
44440;SDS011;30146;52.268;20.944;2023-09-19T15:27:44;6.20;;;4.80;;
44440;SDS011;30146;52.268;20.944;2023-09-19T15:30:15;7.90;;;4.70;;
44440;SDS011;30146;52.268;20.944;2023-09-19T15:32:47;9.10;;;4.20;;
44440;SDS011;30146;52.268;20.944;2023-09-19T15:35:20;9.60;;;5.20;;
44440;SDS011;30146;52.268;20.944;2023-09-19T15:37:51;13.20;;;4.00;;
44440;SDS011;30146;52.268;20.944;2023-09-19T15:43:37;6.30;;;4.20;;
44440;SDS011;30146;52.268;20.944;2023-09-19T15:46:09;5.80;;;4.20;;
44440;SDS011;30146;52.268;20.944;2023-09-19T15:51:34;7.50;;;4.70;;
44440;SDS011;30146;52.268;20.944;2023-09-19T15:54:08;8.60;;;5.30;;
44440;SDS011;30146;52.268;20.944;2023-09-19T15:56:55;12.90;;;5.70;;
44440;SDS011;30146;52.268;20.944;2023-09-19T15:59:26;14.50;;;5.00;;
44440;SDS011;30146;52.268;20.944;2023-09-19T16:02:12;8.20;;;5.00;;
44440;SDS011;30146;52.268;20.944;2023-09-19T16:04:45;6.50;;;4.20;;
44440;SDS011;30146;52.268;20.944;2023-09-19T16:07:28;7.70;;;4.60;;
44440;SDS011;30146;52.268;20.944;2023-09-19T16:09:59;5.30;;;4.70;;
44440;SDS011;30146;52.268;20.944;2023-09-19T16:15:48;12.70;;;4.50;;
44440;SDS011;30146;52.268;20.944;2023-09-19T16:26:46;11.90;;;4.80;;
44440;SDS011;30146;52.268;20.944;2023-09-19T16:31:55;11.30;;;4.90;;
44440;SDS011;30146;52.268;20.944;2023-09-19T16:34:27;10.40;;;4.60;;
44440;SDS011;30146;52.268;20.944;2023-09-19T16:40:29;6.40;;;4.40;;